createdAt,value
2018-05-17T00:01:09.752Z,11.60
2018-05-17T00:03:37.223Z,11.60
2018-05-17T00:06:04.685Z,11.60
2018-05-17T00:08:32.146Z,11.60
2018-05-17T00:10:59.615Z,11.60
2018-05-17T00:13:27.842Z,11.50
2018-05-17T00:15:55.318Z,11.50
2018-05-17T00:18:22.782Z,11.60
2018-05-17T00:20:50.257Z,11.50
2018-05-17T00:23:17.705Z,11.40
2018-05-17T00:25:45.156Z,11.40
2018-05-17T00:28:12.618Z,11.40
2018-05-17T00:30:40.082Z,11.40
2018-05-17T00:33:07.539Z,11.30
2018-05-17T00:35:34.990Z,11.40
2018-05-17T00:38:02.459Z,11.40
2018-05-17T00:40:30.687Z,11.40
2018-05-17T00:42:58.141Z,11.40
2018-05-17T00:45:25.590Z,11.40
2018-05-17T00:47:53.041Z,11.40
2018-05-17T00:50:20.494Z,11.40
2018-05-17T00:52:59.701Z,11.30
2018-05-17T00:55:27.924Z,11.30
2018-05-17T00:57:55.390Z,11.30
2018-05-17T01:00:22.854Z,11.30
2018-05-17T01:02:50.322Z,11.20
2018-05-17T01:05:17.793Z,11.20
2018-05-17T01:07:45.241Z,11.20
2018-05-17T01:10:12.698Z,11.20
2018-05-17T01:12:40.153Z,11.20
2018-05-17T01:15:07.601Z,11.20
2018-05-17T01:17:35.058Z,11.20
2018-05-17T01:20:02.522Z,11.20
2018-05-17T01:22:29.986Z,11.20
2018-05-17T01:24:57.439Z,11.30
2018-05-17T01:27:24.897Z,11.20
2018-05-17T01:29:52.340Z,11.20
2018-05-17T01:32:19.818Z,11.30
2018-05-17T01:34:47.267Z,11.30
2018-05-17T01:37:26.577Z,11.30
2018-05-17T01:39:54.062Z,11.30
2018-05-17T01:42:21.520Z,11.30
2018-05-17T01:44:48.977Z,11.40
2018-05-17T01:47:16.436Z,11.30
2018-05-17T01:49:43.889Z,11.40
2018-05-17T01:52:11.339Z,11.30
2018-05-17T01:54:38.793Z,11.30
2018-05-17T01:57:06.251Z,11.30
2018-05-17T01:59:33.701Z,11.30
2018-05-17T02:02:01.146Z,11.30
2018-05-17T02:04:28.611Z,11.30
2018-05-17T02:06:56.067Z,11.40
2018-05-17T02:09:23.533Z,11.40
2018-05-17T02:11:50.994Z,11.50
2018-05-17T02:14:18.462Z,11.40
2018-05-17T02:16:45.914Z,11.40
2018-05-17T02:19:13.380Z,11.40
2018-05-17T02:21:40.835Z,11.40
2018-05-17T02:24:08.287Z,11.40
2018-05-17T02:26:35.750Z,11.40
2018-05-17T02:29:03.217Z,11.30
2018-05-17T02:31:31.448Z,11.30
2018-05-17T02:33:58.907Z,11.30
2018-05-17T02:36:26.355Z,11.30
2018-05-17T02:38:53.818Z,11.40
2018-05-17T02:41:21.278Z,11.40
2018-05-17T02:43:48.737Z,11.30
2018-05-17T02:46:16.190Z,11.30
2018-05-17T02:48:43.650Z,11.30
2018-05-17T02:51:11.097Z,11.40
2018-05-17T02:53:38.564Z,11.40
2018-05-17T02:56:06.020Z,11.40
2018-05-17T02:58:33.477Z,11.40
2018-05-17T03:01:00.939Z,11.40
2018-05-17T03:03:28.398Z,11.40
2018-05-17T03:05:55.854Z,11.30
2018-05-17T03:08:29.617Z,11.30
2018-05-17T03:10:57.073Z,11.30
2018-05-17T03:13:24.529Z,11.30
2018-05-17T03:15:51.983Z,11.30
2018-05-17T03:18:19.433Z,11.30
2018-05-17T03:20:47.655Z,11.20
2018-05-17T03:23:15.114Z,11.20
2018-05-17T03:25:42.578Z,11.20
2018-05-17T03:28:10.035Z,11.20
2018-05-17T03:30:37.493Z,11.30
2018-05-17T03:33:04.958Z,11.30
2018-05-17T03:35:32.403Z,11.30
2018-05-17T03:37:59.889Z,11.40
2018-05-17T03:40:27.337Z,11.40
2018-05-17T03:42:54.797Z,11.30
2018-05-17T03:45:22.260Z,11.30
2018-05-17T03:47:49.717Z,11.30
2018-05-17T03:50:17.186Z,11.40
2018-05-17T03:52:44.651Z,11.40
2018-05-17T03:55:12.899Z,11.50
2018-05-17T03:57:40.334Z,11.50
2018-05-17T04:00:08.565Z,11.50
2018-05-17T04:02:47.881Z,11.50
2018-05-17T04:05:27.986Z,11.40
2018-05-17T04:07:55.447Z,11.40
2018-05-17T04:10:22.909Z,11.40
2018-05-17T04:12:50.377Z,11.50
2018-05-17T04:15:17.821Z,11.50
2018-05-17T04:17:45.285Z,11.60
2018-05-17T04:20:13.510Z,11.60
2018-05-17T04:22:40.973Z,11.60
2018-05-17T04:25:08.432Z,11.60
2018-05-17T04:27:35.891Z,11.70
2018-05-17T04:30:03.346Z,11.90
2018-05-17T04:32:30.796Z,12.10
2018-05-17T04:34:59.022Z,12.50
2018-05-17T04:37:26.482Z,12.40
2018-05-17T04:39:53.929Z,12.60
2018-05-17T04:42:21.385Z,12.60
2018-05-17T04:44:48.834Z,12.80
2018-05-17T04:47:16.524Z,12.80
2018-05-17T04:49:43.989Z,12.80
2018-05-17T04:52:11.434Z,12.70
2018-05-17T04:54:38.895Z,12.70
2018-05-17T04:57:06.345Z,12.80
2018-05-17T04:59:34.557Z,12.80
2018-05-17T05:02:02.771Z,12.90
2018-05-17T05:04:30.246Z,12.80
2018-05-17T05:06:57.682Z,12.90
2018-05-17T05:09:25.526Z,13.00
2018-05-17T05:11:53.731Z,13.20
2018-05-17T05:14:21.177Z,13.10
2018-05-17T05:16:48.630Z,13.20
2018-05-17T05:19:16.183Z,13.30
2018-05-17T05:21:43.650Z,13.30
2018-05-17T05:24:11.102Z,13.50
2018-05-17T05:26:38.561Z,13.50
2018-05-17T05:29:06.001Z,13.50
2018-05-17T05:31:33.560Z,13.40
2018-05-17T05:34:00.921Z,13.20
2018-05-17T05:36:28.368Z,13.10
2018-05-17T05:38:55.815Z,13.00
2018-05-17T05:41:24.036Z,12.90
2018-05-17T05:43:51.498Z,12.90
2018-05-17T05:46:18.945Z,12.90
2018-05-17T05:48:46.408Z,12.80
2018-05-17T05:51:13.851Z,12.70
2018-05-17T05:53:41.300Z,12.70
2018-05-17T05:56:08.750Z,12.70
2018-05-17T05:58:36.215Z,12.70
2018-05-17T06:01:03.659Z,12.70
2018-05-17T06:03:31.102Z,12.70
2018-05-17T06:05:59.325Z,12.80
2018-05-17T06:08:26.837Z,12.70
2018-05-17T06:10:54.253Z,12.90
2018-05-17T06:13:21.703Z,13.00
2018-05-17T06:15:49.154Z,13.20
2018-05-17T06:18:16.609Z,13.20
2018-05-17T06:20:44.062Z,13.30
2018-05-17T06:23:11.522Z,13.50
2018-05-17T06:25:38.969Z,13.60
2018-05-17T06:28:06.439Z,13.60
2018-05-17T06:30:33.892Z,13.70
2018-05-17T06:33:01.349Z,13.70
2018-05-17T06:35:28.807Z,13.70
2018-05-17T06:37:56.257Z,13.70
2018-05-17T06:40:23.723Z,13.90
2018-05-17T06:42:51.183Z,14.00
2018-05-17T06:45:18.641Z,14.10
2018-05-17T06:47:46.076Z,14.20
2018-05-17T06:50:13.542Z,14.10
2018-05-17T06:52:40.990Z,14.20
2018-05-17T06:55:08.446Z,14.10
2018-05-17T06:57:35.931Z,14.00
2018-05-17T07:00:03.373Z,14.20
2018-05-17T07:02:30.843Z,14.40
2018-05-17T07:04:58.282Z,14.60
2018-05-17T07:07:25.743Z,14.70
2018-05-17T07:09:53.202Z,14.90
2018-05-17T07:12:20.670Z,14.90
2018-05-17T07:14:48.119Z,15.00
2018-05-17T07:17:15.573Z,14.80
2018-05-17T07:19:43.033Z,14.60
2018-05-17T07:22:10.498Z,14.30
2018-05-17T07:24:37.950Z,14.40
2018-05-17T07:27:05.421Z,14.50
2018-05-17T07:29:32.870Z,14.50
2018-05-17T07:32:00.326Z,14.60
2018-05-17T07:34:27.788Z,14.80
2018-05-17T07:36:55.243Z,14.80
2018-05-17T07:39:22.707Z,15.00
2018-05-17T07:41:50.163Z,15.20
2018-05-17T07:44:17.634Z,15.40
2018-05-17T07:46:45.136Z,15.60
2018-05-17T07:49:13.337Z,16.00
2018-05-17T07:51:40.788Z,16.00
2018-05-17T07:54:08.253Z,16.10
2018-05-17T07:56:35.708Z,15.90
2018-05-17T07:59:03.148Z,15.60
2018-05-17T08:01:30.601Z,15.40
2018-05-17T08:03:58.062Z,15.20
2018-05-17T08:06:25.530Z,15.40
2018-05-17T08:08:53.006Z,15.60
2018-05-17T08:11:20.478Z,15.60
2018-05-17T08:13:47.934Z,15.60
2018-05-17T08:16:15.390Z,15.70
2018-05-17T08:18:42.841Z,15.70
2018-05-17T08:21:10.285Z,15.70
2018-05-17T08:23:37.738Z,15.70
2018-05-17T08:26:05.194Z,15.70
2018-05-17T08:28:32.647Z,15.50
2018-05-17T08:31:00.247Z,15.20
2018-05-17T08:33:27.626Z,15.10
2018-05-17T08:35:55.105Z,15.20
2018-05-17T08:38:22.564Z,15.30
2018-05-17T08:40:50.027Z,15.60
2018-05-17T08:43:17.471Z,15.70
2018-05-17T08:45:44.957Z,15.70
2018-05-17T08:48:12.573Z,15.70
2018-05-17T08:50:40.046Z,15.70
2018-05-17T08:53:07.511Z,15.40
2018-05-17T08:55:34.969Z,15.50
2018-05-17T08:58:02.413Z,15.60
2018-05-17T09:00:29.858Z,15.60
2018-05-17T09:02:57.314Z,15.70
2018-05-17T09:05:24.774Z,15.70
2018-05-17T09:07:52.478Z,15.90
2018-05-17T09:10:19.928Z,15.80
2018-05-17T09:12:47.374Z,15.90
2018-05-17T09:15:14.838Z,16.10
2018-05-17T09:17:42.290Z,16.10
2018-05-17T09:20:09.792Z,16.00
2018-05-17T09:22:37.197Z,15.90
2018-05-17T09:25:04.649Z,15.90
2018-05-17T09:27:32.110Z,15.90
2018-05-17T09:29:59.558Z,15.80
2018-05-17T09:32:30.762Z,15.70
2018-05-17T09:34:59.244Z,15.30
2018-05-17T09:37:27.614Z,15.30
2018-05-17T09:39:55.050Z,15.20
2018-05-17T09:42:22.502Z,15.10
2018-05-17T09:44:49.958Z,15.10
2018-05-17T09:47:17.422Z,15.30
2018-05-17T09:49:44.868Z,15.50
2018-05-17T09:52:12.320Z,15.80
2018-05-17T09:54:39.770Z,16.00
2018-05-17T09:57:07.262Z,16.30
2018-05-17T09:59:34.716Z,16.40
2018-05-17T10:02:02.159Z,16.70
2018-05-17T10:04:29.634Z,17.00
2018-05-17T10:06:57.078Z,17.20
2018-05-17T10:09:24.521Z,17.30
2018-05-17T10:11:51.981Z,17.50
2018-05-17T10:14:19.426Z,17.70
2018-05-17T10:16:46.903Z,17.80
2018-05-17T10:19:14.354Z,17.80
2018-05-17T10:21:41.819Z,17.90
2018-05-17T10:24:09.261Z,17.80
2018-05-17T10:26:36.715Z,17.80
2018-05-17T10:29:04.157Z,17.60
2018-05-17T10:31:31.616Z,17.40
2018-05-17T10:33:59.070Z,17.10
2018-05-17T10:36:26.526Z,16.90
2018-05-17T10:38:53.970Z,16.80
2018-05-17T10:41:21.445Z,16.90
2018-05-17T10:43:48.918Z,16.80
2018-05-17T10:46:16.387Z,16.80
2018-05-17T10:48:43.839Z,16.90
2018-05-17T10:51:11.278Z,17.00
2018-05-17T10:53:38.733Z,17.00
2018-05-17T10:56:06.188Z,17.00
2018-05-17T10:58:33.657Z,17.10
2018-05-17T11:01:01.111Z,17.00
2018-05-17T11:03:28.566Z,16.90
2018-05-17T11:05:56.027Z,17.00
2018-05-17T11:08:23.473Z,17.20
2018-05-17T11:10:50.929Z,17.20
2018-05-17T11:13:18.397Z,17.10
2018-05-17T11:15:45.852Z,17.20
2018-05-17T11:18:13.301Z,17.30
2018-05-17T11:20:40.772Z,17.30
2018-05-17T11:23:08.230Z,17.20
2018-05-17T11:25:35.711Z,17.40
2018-05-17T11:28:03.161Z,17.60
2018-05-17T11:30:30.597Z,17.70
2018-05-17T11:32:58.075Z,18.00
2018-05-17T11:35:25.501Z,17.80
2018-05-17T11:37:53.059Z,18.00
2018-05-17T11:40:20.506Z,18.10
2018-05-17T11:42:47.964Z,18.10
2018-05-17T11:45:18.210Z,18.10
2018-05-17T11:47:45.666Z,18.00
2018-05-17T11:50:13.129Z,18.00
2018-05-17T11:52:40.569Z,18.00
2018-05-17T11:55:08.021Z,18.20
2018-05-17T11:57:35.475Z,18.20
2018-05-17T12:00:02.921Z,18.40
2018-05-17T12:02:30.365Z,18.30
2018-05-17T12:04:58.591Z,18.10
2018-05-17T12:07:26.084Z,18.10
2018-05-17T12:09:53.494Z,18.20
2018-05-17T12:12:20.937Z,18.20
2018-05-17T12:14:48.397Z,18.30
2018-05-17T12:17:15.857Z,18.00
2018-05-17T12:19:43.295Z,17.90
2018-05-17T12:22:10.746Z,17.80
2018-05-17T12:24:38.218Z,17.50
2018-05-17T12:27:05.669Z,17.20
2018-05-17T12:29:33.125Z,17.10
2018-05-17T12:32:00.614Z,16.80
2018-05-17T12:34:28.047Z,16.70
2018-05-17T12:36:55.490Z,16.60
2018-05-17T12:39:22.947Z,16.30
2018-05-17T12:41:50.408Z,16.20
2018-05-17T12:44:17.870Z,15.80
2018-05-17T12:46:45.322Z,15.40
2018-05-17T12:49:12.781Z,15.30
2018-05-17T12:51:40.239Z,15.30
2018-05-17T12:54:07.698Z,15.40
2018-05-17T12:56:35.148Z,15.60
2018-05-17T12:59:02.623Z,15.90
2018-05-17T13:01:30.074Z,16.20
2018-05-17T13:03:57.523Z,16.50
2018-05-17T13:06:24.979Z,16.70
2018-05-17T13:08:52.427Z,17.00
2018-05-17T13:11:19.887Z,17.20
2018-05-17T13:13:47.336Z,17.40
2018-05-17T13:16:15.553Z,17.70
2018-05-17T13:18:42.998Z,17.70
2018-05-17T13:21:10.459Z,17.70
2018-05-17T13:23:37.922Z,17.70
2018-05-17T13:26:05.388Z,17.70
2018-05-17T13:28:32.841Z,17.60
2018-05-17T13:31:00.294Z,17.40
2018-05-17T13:33:27.755Z,17.20
2018-05-17T13:35:55.203Z,17.10
2018-05-17T13:38:22.665Z,16.90
2018-05-17T13:40:50.111Z,16.70
2018-05-17T13:43:17.557Z,16.60
2018-05-17T13:45:45.009Z,16.60
2018-05-17T13:48:12.471Z,16.60
2018-05-17T13:50:39.934Z,16.40
2018-05-17T13:53:07.394Z,16.30
2018-05-17T13:55:34.875Z,16.40
2018-05-17T13:58:02.316Z,16.20
2018-05-17T14:00:29.764Z,15.90
2018-05-17T14:02:57.245Z,15.60
2018-05-17T14:05:24.666Z,15.50
2018-05-17T14:07:52.142Z,15.20
2018-05-17T14:10:19.617Z,14.90
2018-05-17T14:12:47.066Z,14.70
2018-05-17T14:15:14.552Z,14.50
2018-05-17T14:17:41.972Z,14.40
2018-05-17T14:20:09.430Z,14.20
2018-05-17T14:22:36.880Z,14.20
2018-05-17T14:25:04.327Z,14.10
2018-05-17T14:27:31.779Z,13.80
2018-05-17T14:29:59.226Z,13.70
2018-05-17T14:32:26.670Z,13.60
2018-05-17T14:34:54.896Z,13.50
2018-05-17T14:37:22.353Z,13.50
2018-05-17T14:39:49.803Z,13.50
2018-05-17T14:42:17.270Z,13.30
2018-05-17T14:44:44.729Z,13.40
2018-05-17T14:47:12.178Z,13.50
2018-05-17T14:49:39.640Z,13.60
2018-05-17T14:52:07.450Z,13.70
2018-05-17T14:54:35.662Z,13.70
2018-05-17T14:57:03.114Z,13.70
2018-05-17T14:59:30.549Z,13.60
2018-05-17T15:01:58.794Z,13.30
2018-05-17T15:04:26.233Z,13.30
2018-05-17T15:06:53.675Z,13.30
2018-05-17T15:09:21.124Z,13.30
2018-05-17T15:11:48.575Z,13.40
2018-05-17T15:14:16.031Z,13.40
2018-05-17T15:16:43.494Z,13.40
2018-05-17T15:19:11.086Z,13.40
2018-05-17T15:21:38.425Z,13.40
2018-05-17T15:24:05.883Z,13.40
2018-05-17T15:26:33.325Z,13.40
2018-05-17T15:29:00.789Z,13.40
2018-05-17T15:31:28.249Z,13.40
2018-05-17T15:33:55.755Z,13.40
2018-05-17T15:36:23.194Z,13.40
2018-05-17T15:38:50.649Z,13.40
2018-05-17T15:41:18.117Z,13.30
2018-05-17T15:43:45.553Z,13.30
2018-05-17T15:46:13.022Z,13.40
2018-05-17T15:48:40.462Z,13.40
2018-05-17T15:51:07.918Z,13.40
2018-05-17T15:53:35.372Z,13.40
2018-05-17T15:56:02.809Z,13.50
2018-05-17T15:58:30.277Z,13.50
2018-05-17T16:00:58.498Z,13.70
2018-05-17T16:03:26.728Z,13.70
2018-05-17T16:05:54.174Z,13.70
2018-05-17T16:08:21.634Z,13.80
2018-05-17T16:10:49.079Z,13.80
2018-05-17T16:13:16.547Z,13.90
2018-05-17T16:15:44.029Z,13.90
2018-05-17T16:18:11.465Z,14.00
2018-05-17T16:20:38.945Z,14.10
2018-05-17T16:23:06.398Z,14.00
2018-05-17T16:25:33.858Z,14.00
2018-05-17T16:28:01.323Z,14.10
2018-05-17T16:30:28.790Z,14.20
2018-05-17T16:32:56.248Z,14.40
2018-05-17T16:35:23.701Z,14.70
2018-05-17T16:37:52.670Z,15.40
2018-05-17T16:40:20.121Z,15.30
2018-05-17T16:42:47.602Z,15.50
2018-05-17T16:45:15.115Z,15.90
2018-05-17T16:47:42.585Z,16.20
2018-05-17T16:50:10.037Z,16.80
2018-05-17T16:52:37.600Z,17.30
2018-05-17T16:55:04.954Z,17.60
2018-05-17T16:57:32.410Z,18.00
2018-05-17T16:59:59.878Z,18.10
2018-05-17T17:02:28.099Z,17.90
2018-05-17T17:04:55.643Z,17.90
2018-05-17T17:07:23.503Z,17.80
2018-05-17T17:09:51.557Z,17.60
2018-05-17T17:12:20.297Z,17.40
2018-05-17T17:14:48.357Z,17.40
2018-05-17T17:17:16.297Z,17.20
2018-05-17T17:19:44.738Z,17.10
2018-05-17T17:22:12.743Z,17.10
2018-05-17T17:24:41.091Z,17.20
2018-05-17T17:27:09.674Z,17.30
2018-05-17T17:29:37.380Z,17.30
2018-05-17T17:32:05.950Z,17.60
2018-05-17T17:34:34.476Z,17.50
2018-05-17T17:37:01.974Z,17.50
2018-05-17T17:39:29.431Z,17.10
2018-05-17T17:41:56.899Z,16.70
2018-05-17T17:44:24.362Z,16.30
2018-05-17T17:46:51.820Z,16.10
2018-05-17T17:49:19.289Z,15.90
2018-05-17T17:51:46.761Z,15.70
2018-05-17T17:54:14.990Z,15.40
2018-05-17T17:56:43.218Z,15.30
2018-05-17T17:59:11.455Z,15.20
2018-05-17T18:01:38.926Z,15.20
2018-05-17T18:04:06.437Z,15.10
2018-05-17T18:06:33.882Z,15.00
2018-05-17T18:09:01.331Z,14.90
2018-05-17T18:11:28.825Z,14.90
2018-05-17T18:13:56.274Z,14.90
2018-05-17T18:16:24.574Z,14.80
2018-05-17T18:18:52.026Z,14.80
2018-05-17T18:21:19.485Z,14.70
2018-05-17T18:23:46.947Z,14.70
2018-05-17T18:26:14.433Z,14.70
2018-05-17T18:28:42.649Z,14.60
2018-05-17T18:31:10.149Z,14.60
2018-05-17T18:33:37.598Z,14.60
2018-05-17T18:36:05.054Z,14.50
2018-05-17T18:38:32.504Z,14.40
2018-05-17T18:40:59.974Z,14.30
2018-05-17T18:43:27.434Z,14.30
2018-05-17T18:45:54.890Z,14.20
2018-05-17T18:48:22.349Z,14.20
2018-05-17T18:50:49.798Z,14.10
2018-05-17T18:53:17.253Z,14.10
2018-05-17T18:55:44.708Z,14.10
2018-05-17T18:58:12.937Z,14.00
2018-05-17T19:00:40.402Z,14.00
2018-05-17T19:03:07.856Z,14.00
2018-05-17T19:05:35.313Z,13.90
2018-05-17T19:08:02.781Z,13.90
2018-05-17T19:10:30.250Z,13.90
2018-05-17T19:12:57.705Z,13.90
2018-05-17T19:15:25.182Z,13.80
2018-05-17T19:17:52.650Z,13.80
2018-05-17T19:20:20.186Z,13.70
2018-05-17T19:22:47.578Z,13.70
2018-05-17T19:25:15.798Z,13.60
2018-05-17T19:27:43.262Z,13.60
2018-05-17T19:30:10.709Z,13.60
2018-05-17T19:32:38.173Z,13.60
2018-05-17T19:35:05.630Z,13.60
2018-05-17T19:37:33.089Z,13.60
2018-05-17T19:40:00.543Z,13.60
2018-05-17T19:42:27.998Z,13.50
2018-05-17T19:44:55.471Z,13.50
2018-05-17T19:47:23.017Z,13.50
2018-05-17T19:49:50.394Z,13.40
2018-05-17T19:52:17.878Z,13.50
2018-05-17T19:54:45.342Z,13.50
2018-05-17T19:57:13.569Z,13.60
2018-05-17T19:59:41.027Z,13.50
2018-05-17T20:02:08.501Z,13.60
2018-05-17T20:04:35.950Z,13.60
2018-05-17T20:07:03.415Z,13.60
2018-05-17T20:09:30.871Z,13.50
2018-05-17T20:11:58.326Z,13.50
2018-05-17T20:14:25.795Z,13.50
2018-05-17T20:16:53.252Z,13.50
2018-05-17T20:19:20.710Z,13.50
2018-05-17T20:21:48.166Z,13.50
2018-05-17T20:24:15.638Z,13.50
2018-05-17T20:26:43.101Z,13.50
2018-05-17T20:29:11.362Z,13.50
2018-05-17T20:31:38.866Z,13.40
2018-05-17T20:34:06.323Z,13.50
2018-05-17T20:36:33.839Z,13.40
2018-05-17T20:39:01.347Z,13.40
2018-05-17T20:41:28.798Z,13.40
2018-05-17T20:43:56.257Z,13.40
2018-05-17T20:46:23.721Z,13.40
2018-05-17T20:48:51.168Z,13.40
2018-05-17T20:51:18.634Z,13.30
2018-05-17T20:53:46.089Z,13.40
2018-05-17T20:56:13.539Z,13.40
2018-05-17T20:58:41.002Z,13.30
2018-05-17T21:01:08.462Z,13.30
2018-05-17T21:03:35.917Z,13.30
2018-05-17T21:06:03.361Z,13.30
2018-05-17T21:08:41.953Z,13.30
2018-05-17T21:11:10.182Z,13.10
2018-05-17T21:13:37.632Z,13.20
2018-05-17T21:16:05.094Z,13.10
2018-05-17T21:18:32.560Z,13.20
2018-05-17T21:21:00.089Z,13.00
2018-05-17T21:23:28.349Z,13.00
2018-05-17T21:25:55.839Z,13.00
2018-05-17T21:28:23.342Z,12.90
2018-05-17T21:30:51.574Z,12.90
2018-05-17T21:33:19.057Z,12.90
2018-05-17T21:35:46.533Z,12.90
2018-05-17T21:38:14.779Z,12.90
2018-05-17T21:40:42.275Z,12.90
2018-05-17T21:43:10.549Z,12.90
2018-05-17T21:45:38.799Z,12.90
2018-05-17T21:48:06.262Z,12.90
2018-05-17T21:50:33.784Z,12.90
2018-05-17T21:53:01.269Z,12.90
2018-05-17T21:55:28.787Z,12.90
2018-05-17T21:57:57.378Z,13.00
2018-05-17T22:00:24.857Z,13.00
2018-05-17T22:02:52.361Z,13.00
2018-05-17T22:05:20.589Z,12.90
2018-05-17T22:07:48.059Z,12.80
2018-05-17T22:10:15.542Z,12.80
2018-05-17T22:12:43.002Z,12.70
2018-05-17T22:15:11.234Z,12.70
2018-05-17T22:17:38.689Z,12.60
2018-05-17T22:20:07.028Z,12.60
2018-05-17T22:22:35.321Z,12.60
2018-05-17T22:25:03.406Z,12.60
2018-05-17T22:27:30.971Z,12.60
2018-05-17T22:29:58.430Z,12.60
2018-05-17T22:32:25.922Z,12.60
2018-05-17T22:34:53.450Z,12.50
2018-05-17T22:37:20.923Z,12.50
2018-05-17T22:39:48.369Z,12.50
2018-05-17T22:42:15.833Z,12.40
2018-05-17T22:44:43.299Z,12.40
2018-05-17T22:47:10.762Z,12.40
2018-05-17T22:49:38.224Z,12.40
2018-05-17T22:52:05.710Z,12.40
2018-05-17T22:54:33.945Z,12.30
2018-05-17T22:57:12.213Z,12.30
2018-05-17T22:59:39.678Z,12.30
2018-05-17T23:02:07.163Z,12.30
2018-05-17T23:04:34.631Z,12.20
2018-05-17T23:07:02.094Z,12.20
2018-05-17T23:09:29.576Z,12.20
2018-05-17T23:11:57.798Z,12.20
2018-05-17T23:14:25.274Z,12.20
2018-05-17T23:16:52.722Z,12.20
2018-05-17T23:19:20.173Z,12.20
2018-05-17T23:21:47.634Z,12.30
2018-05-17T23:24:15.087Z,12.40
2018-05-17T23:26:42.545Z,12.40
2018-05-17T23:29:10.010Z,12.40
2018-05-17T23:31:37.489Z,12.40
2018-05-17T23:34:04.950Z,12.40
2018-05-17T23:36:32.401Z,12.40
2018-05-17T23:38:59.865Z,12.30
2018-05-17T23:41:36.157Z,12.30
2018-05-17T23:44:03.598Z,12.30
2018-05-17T23:46:31.828Z,12.20
2018-05-17T23:48:59.284Z,12.20
2018-05-17T23:51:26.749Z,12.20
2018-05-17T23:53:54.198Z,12.20
2018-05-17T23:56:21.673Z,12.30
2018-05-17T23:58:49.133Z,12.30
